KPQN Airport (Pipestone Muni) Information

FAA: PQN - ICAO: KPQN

KPQN Airport Location

State Minnesota
County Pipestone
City Pipestone
KPQN Airport is 1 miles southeast of Pipestone, MN.
Latitude 43-58-55.6743N
Longitude 096-18-01.4680W
Elevation 1,736ft

KPQN Airport METARs

METAR KPQN 200415Z AUTO 04009KT 10SM CLR 09/08 A2994 RMK AO2
Altimeter 29.94"
Temperature 9.0°C (48.2°F)
Wind 40° at 9KT
Clouds Skies are clear.
Visibility 10.0mi
Time observed: 2021-10-20T04:15:00Z

KPQN Airport Details

Status Operational
Activation September 1945
Ownership Public
Usage Public
Chart OMAHA
ATC on-site No
Beacon schedule sunset-sunrise
Beacon color clear green

KPQN Airport Contacts

Owner CITY OF PIPESTONE
Owner address 119 SW 2ND AVE, PIPESTONE, MN 56164
Owner phone (507) 562-2332
Manager JAMES J SCHUMACHER JR
Manager address 640 OLD LONG LAKE RD, WAYZATA, MN 55391
Manager phone 952-475-3215

KPQN Airport (Pipestone Muni) Radio Frequencies

KPQN (Airport) Radio Frequencies

UNICOM 122.8
Common traffic advisory frequency (CTAF) 122.8